sensor_id;sensor_type;location;lat;lon;timestamp;pressure;altitude;pressure_sealevel;temperature;humidity
77702;BME280;66868;42.708;23.404;2023-05-29T00:01:24;94941.66;;;14.85;nan
77702;BME280;66868;42.708;23.404;2023-05-29T00:03:50;94936.13;;;14.69;nan
77702;BME280;66868;42.708;23.404;2023-05-29T00:06:16;94949.19;;;14.75;nan
77702;BME280;66868;42.708;23.404;2023-05-29T00:08:41;94950.81;;;14.87;nan
77702;BME280;66868;42.708;23.404;2023-05-29T00:11:06;94948.56;;;14.94;nan
77702;BME280;66868;42.708;23.404;2023-05-29T00:13:32;94946.97;;;14.93;nan
77702;BME280;66868;42.708;23.404;2023-05-29T00:15:57;94948.47;;;14.84;nan
77702;BME280;66868;42.708;23.404;2023-05-29T00:18:24;94941.53;;;14.86;nan
77702;BME280;66868;42.708;23.404;2023-05-29T00:20:50;94953.91;;;15.02;nan
77702;BME280;66868;42.708;23.404;2023-05-29T00:23:18;94944.84;;;15.09;nan
77702;BME280;66868;42.708;23.404;2023-05-29T00:25:43;94942.72;;;15.14;nan
77702;BME280;66868;42.708;23.404;2023-05-29T00:28:09;94943.00;;;15.11;nan
77702;BME280;66868;42.708;23.404;2023-05-29T00:30:34;94942.72;;;15.14;nan
77702;BME280;66868;42.708;23.404;2023-05-29T00:33:00;94936.72;;;15.15;nan
77702;BME280;66868;42.708;23.404;2023-05-29T00:35:25;94908.25;;;14.99;nan
77702;BME280;66868;42.708;23.404;2023-05-29T00:37:51;94917.31;;;14.92;nan
77702;BME280;66868;42.708;23.404;2023-05-29T00:40:16;94938.03;;;14.98;nan
77702;BME280;66868;42.708;23.404;2023-05-29T00:42:42;94934.69;;;14.98;nan
77702;BME280;66868;42.708;23.404;2023-05-29T00:45:07;94943.47;;;14.94;nan
77702;BME280;66868;42.708;23.404;2023-05-29T00:47:33;94921.84;;;14.88;nan
77702;BME280;66868;42.708;23.404;2023-05-29T00:49:59;94932.06;;;14.88;nan
77702;BME280;66868;42.708;23.404;2023-05-29T00:52:25;94909.94;;;14.78;nan
77702;BME280;66868;42.708;23.404;2023-05-29T00:54:51;94919.06;;;14.80;nan
77702;BME280;66868;42.708;23.404;2023-05-29T00:57:17;94918.03;;;14.83;nan
77702;BME280;66868;42.708;23.404;2023-05-29T00:59:44;94937.72;;;14.92;nan
77702;BME280;66868;42.708;23.404;2023-05-29T01:02:10;94943.63;;;14.92;nan
77702;BME280;66868;42.708;23.404;2023-05-29T01:04:36;94937.16;;;14.88;nan
77702;BME280;66868;42.708;23.404;2023-05-29T01:07:03;94928.22;;;14.83;nan
77702;BME280;66868;42.708;23.404;2023-05-29T01:09:29;94932.19;;;14.76;nan
77702;BME280;66868;42.708;23.404;2023-05-29T01:14:48;94936.13;;;14.69;nan
77702;BME280;66868;42.708;23.404;2023-05-29T01:17:25;94943.06;;;14.67;nan
77702;BME280;66868;42.708;23.404;2023-05-29T01:20:11;94937.97;;;14.67;nan
77702;BME280;66868;42.708;23.404;2023-05-29T01:28:15;94934.31;;;14.59;nan
77702;BME280;66868;42.708;23.404;2023-05-29T01:30:44;94935.94;;;14.61;nan
77702;BME280;66868;42.708;23.404;2023-05-29T01:33:10;94933.25;;;14.62;nan
77702;BME280;66868;42.708;23.404;2023-05-29T01:35:36;94910.09;;;14.43;nan
77702;BME280;66868;42.708;23.404;2023-05-29T01:38:01;94930.59;;;14.52;nan
77702;BME280;66868;42.708;23.404;2023-05-29T01:40:27;94927.16;;;14.42;nan
77702;BME280;66868;42.708;23.404;2023-05-29T01:42:52;94907.81;;;14.29;nan
77702;BME280;66868;42.708;23.404;2023-05-29T01:45:18;94922.41;;;14.38;nan
77702;BME280;66868;42.708;23.404;2023-05-29T01:47:43;94910.91;;;14.32;nan
77702;BME280;66868;42.708;23.404;2023-05-29T01:50:10;94921.72;;;14.47;nan
77702;BME280;66868;42.708;23.404;2023-05-29T01:52:37;94892.41;;;14.19;nan
77702;BME280;66868;42.708;23.404;2023-05-29T01:55:03;94919.97;;;14.36;nan
77702;BME280;66868;42.708;23.404;2023-05-29T01:57:28;94922.59;;;14.35;nan
77702;BME280;66868;42.708;23.404;2023-05-29T01:59:54;94900.03;;;14.30;nan
77702;BME280;66868;42.708;23.404;2023-05-29T02:02:21;94918.25;;;14.37;nan
77702;BME280;66868;42.708;23.404;2023-05-29T02:04:47;94922.06;;;14.42;nan
77702;BME280;66868;42.708;23.404;2023-05-29T02:07:13;94906.31;;;14.37;nan
77702;BME280;66868;42.708;23.404;2023-05-29T02:09:40;94923.44;;;14.46;nan
77702;BME280;66868;42.708;23.404;2023-05-29T02:12:06;94913.00;;;14.38;nan
77702;BME280;66868;42.708;23.404;2023-05-29T02:14:32;94915.44;;;14.40;nan
77702;BME280;66868;42.708;23.404;2023-05-29T02:16:57;94920.53;;;14.40;nan
77702;BME280;66868;42.708;23.404;2023-05-29T02:19:23;94920.19;;;14.33;nan
77702;BME280;66868;42.708;23.404;2023-05-29T02:21:50;94922.59;;;14.35;nan
77702;BME280;66868;42.708;23.404;2023-05-29T02:24:15;94920.97;;;14.34;nan
77702;BME280;66868;42.708;23.404;2023-05-29T02:26:41;94899.34;;;14.17;nan
77702;BME280;66868;42.708;23.404;2023-05-29T02:29:07;94920.06;;;14.24;nan
77702;BME280;66868;42.708;23.404;2023-05-29T02:31:33;94902.50;;;14.09;nan
77702;BME280;66868;42.708;23.404;2023-05-29T02:33:58;94922.84;;;14.21;nan
77702;BME280;66868;42.708;23.404;2023-05-29T02:36:24;94914.16;;;14.12;nan
77702;BME280;66868;42.708;23.404;2023-05-29T02:38:49;94918.09;;;14.16;nan
77702;BME280;66868;42.708;23.404;2023-05-29T02:41:15;94928.28;;;14.16;nan
77702;BME280;66868;42.708;23.404;2023-05-29T02:43:40;94921.44;;;14.16;nan
77702;BME280;66868;42.708;23.404;2023-05-29T02:46:06;94912.78;;;14.08;nan
77702;BME280;66868;42.708;23.404;2023-05-29T02:48:31;94909.63;;;14.15;nan
77702;BME280;66868;42.708;23.404;2023-05-29T02:50:56;94929.66;;;14.31;nan
77702;BME280;66868;42.708;23.404;2023-05-29T02:53:22;94919.25;;;14.23;nan
77702;BME280;66868;42.708;23.404;2023-05-29T02:55:48;94930.59;;;14.30;nan
77702;BME280;66868;42.708;23.404;2023-05-29T02:58:14;94921.56;;;14.26;nan
77702;BME280;66868;42.708;23.404;2023-05-29T03:00:41;94922.28;;;14.28;nan
77702;BME280;66868;42.708;23.404;2023-05-29T03:03:06;94897.72;;;14.16;nan
77702;BME280;66868;42.708;23.404;2023-05-29T03:05:32;94926.41;;;14.29;nan
77702;BME280;66868;42.708;23.404;2023-05-29T03:07:57;94909.06;;;14.23;nan
77702;BME280;66868;42.708;23.404;2023-05-29T03:10:22;94931.78;;;14.37;nan
77702;BME280;66868;42.708;23.404;2023-05-29T03:12:48;94915.69;;;14.37;nan
77702;BME280;66868;42.708;23.404;2023-05-29T03:15:13;94929.56;;;14.44;nan
77702;BME280;66868;42.708;23.404;2023-05-29T03:17:39;94934.56;;;14.45;nan
77702;BME280;66868;42.708;23.404;2023-05-29T03:20:05;94935.25;;;14.36;nan
77702;BME280;66868;42.708;23.404;2023-05-29T03:22:32;94906.28;;;14.15;nan
77702;BME280;66868;42.708;23.404;2023-05-29T03:24:57;94940.09;;;14.39;nan
77702;BME280;66868;42.708;23.404;2023-05-29T03:27:23;94950.06;;;14.42;nan
77702;BME280;66868;42.708;23.404;2023-05-29T03:29:48;94940.66;;;14.43;nan
77702;BME280;66868;42.708;23.404;2023-05-29T03:32:14;94952.84;;;14.50;nan
77702;BME280;66868;42.708;23.404;2023-05-29T03:34:39;94953.16;;;14.57;nan
77702;BME280;66868;42.708;23.404;2023-05-29T03:37:05;94950.06;;;14.65;nan
77702;BME280;66868;42.708;23.404;2023-05-29T03:39:30;94957.66;;;14.76;nan
77702;BME280;66868;42.708;23.404;2023-05-29T03:41:56;94967.13;;;14.85;nan
77702;BME280;66868;42.708;23.404;2023-05-29T03:44:21;94965.84;;;14.90;nan
77702;BME280;66868;42.708;23.404;2023-05-29T03:46:46;94958.66;;;14.95;nan
77702;BME280;66868;42.708;23.404;2023-05-29T03:49:12;94965.84;;;15.01;nan
77702;BME280;66868;42.708;23.404;2023-05-29T03:51:37;94960.75;;;14.90;nan
77702;BME280;66868;42.708;23.404;2023-05-29T03:54:03;94957.78;;;14.74;nan
77702;BME280;66868;42.708;23.404;2023-05-29T03:56:28;94968.53;;;14.89;nan
77702;BME280;66868;42.708;23.404;2023-05-29T03:58:54;94966.75;;;15.00;nan
77702;BME280;66868;42.708;23.404;2023-05-29T04:01:20;94980.28;;;15.12;nan
77702;BME280;66868;42.708;23.404;2023-05-29T04:03:45;94977.59;;;15.25;nan
77702;BME280;66868;42.708;23.404;2023-05-29T04:06:11;94982.06;;;15.32;nan
77702;BME280;66868;42.708;23.404;2023-05-29T04:08:36;94974.06;;;15.37;nan
77702;BME280;66868;42.708;23.404;2023-05-29T04:11:02;94988.63;;;15.46;nan
77702;BME280;66868;42.708;23.404;2023-05-29T04:13:28;94996.91;;;15.38;nan
77702;BME280;66868;42.708;23.404;2023-05-29T04:15:54;94991.06;;;15.47;nan
77702;BME280;66868;42.708;23.404;2023-05-29T04:18:20;94983.41;;;15.47;nan
77702;BME280;66868;42.708;23.404;2023-05-29T04:20:45;94990.81;;;15.62;nan
77702;BME280;66868;42.708;23.404;2023-05-29T04:23:12;94992.75;;;15.69;nan
77702;BME280;66868;42.708;23.404;2023-05-29T04:25:38;94989.81;;;15.74;nan
77702;BME280;66868;42.708;23.404;2023-05-29T04:28:03;94992.75;;;15.90;nan
77702;BME280;66868;42.708;23.404;2023-05-29T04:30:29;94989.03;;;15.94;nan
77702;BME280;66868;42.708;23.404;2023-05-29T04:32:54;94992.56;;;16.03;nan
77702;BME280;66868;42.708;23.404;2023-05-29T04:35:20;94986.84;;;15.89;nan
77702;BME280;66868;42.708;23.404;2023-05-29T04:37:47;94984.19;;;16.01;nan
77702;BME280;66868;42.708;23.404;2023-05-29T04:40:12;94995.16;;;16.12;nan
77702;BME280;66868;42.708;23.404;2023-05-29T04:42:42;94999.16;;;16.26;nan
77702;BME280;66868;42.708;23.404;2023-05-29T04:45:10;95006.44;;;16.30;nan
77702;BME280;66868;42.708;23.404;2023-05-29T04:47:38;94947.09;;;15.97;nan
77702;BME280;66868;42.708;23.404;2023-05-29T04:50:12;95013.22;;;16.41;nan
77702;BME280;66868;42.708;23.404;2023-05-29T04:52:38;95008.38;;;16.48;nan
77702;BME280;66868;42.708;23.404;2023-05-29T04:55:04;94991.00;;;16.42;nan
77702;BME280;66868;42.708;23.404;2023-05-29T04:57:30;95000.56;;;16.40;nan
77702;BME280;66868;42.708;23.404;2023-05-29T04:59:55;94996.66;;;16.15;nan
77702;BME280;66868;42.708;23.404;2023-05-29T05:02:21;95020.56;;;16.34;nan
77702;BME280;66868;42.708;23.404;2023-05-29T05:04:46;95024.03;;;16.03;nan
77702;BME280;66868;42.708;23.404;2023-05-29T05:07:12;95028.25;;;15.93;nan
77702;BME280;66868;42.708;23.404;2023-05-29T05:09:38;95034.66;;;15.87;nan
77702;BME280;66868;42.708;23.404;2023-05-29T05:12:03;95018.63;;;15.65;nan
77702;BME280;66868;42.708;23.404;2023-05-29T05:14:29;95024.38;;;15.78;nan
77702;BME280;66868;42.708;23.404;2023-05-29T05:16:54;95029.81;;;15.84;nan
77702;BME280;66868;42.708;23.404;2023-05-29T05:19:19;95033.09;;;15.96;nan
77702;BME280;66868;42.708;23.404;2023-05-29T05:21:45;95039.31;;;15.82;nan
77702;BME280;66868;42.708;23.404;2023-05-29T05:24:10;95039.81;;;15.97;nan
77702;BME280;66868;42.708;23.404;2023-05-29T05:26:36;95039.69;;;15.78;nan
77702;BME280;66868;42.708;23.404;2023-05-29T05:29:01;95037.19;;;15.67;nan
77702;BME280;66868;42.708;23.404;2023-05-29T05:31:27;95039.25;;;15.73;nan
77702;BME280;66868;42.708;23.404;2023-05-29T05:33:52;95024.09;;;15.60;nan
77702;BME280;66868;42.708;23.404;2023-05-29T05:36:18;95041.94;;;15.71;nan
77702;BME280;66868;42.708;23.404;2023-05-29T05:38:43;95038.78;;;15.68;nan
77702;BME280;66868;42.708;23.404;2023-05-29T05:41:09;95031.59;;;15.73;nan
77702;BME280;66868;42.708;23.404;2023-05-29T05:43:35;95035.03;;;15.83;nan
77702;BME280;66868;42.708;23.404;2023-05-29T05:46:00;95030.50;;;16.07;nan
77702;BME280;66868;42.708;23.404;2023-05-29T05:48:25;94998.03;;;15.98;nan
77702;BME280;66868;42.708;23.404;2023-05-29T05:50:51;95041.09;;;16.03;nan
77702;BME280;66868;42.708;23.404;2023-05-29T05:53:16;95039.91;;;16.27;nan
77702;BME280;66868;42.708;23.404;2023-05-29T05:55:42;95033.84;;;16.28;nan
77702;BME280;66868;42.708;23.404;2023-05-29T05:58:08;95038.34;;;16.15;nan
77702;BME280;66868;42.708;23.404;2023-05-29T06:00:33;95020.31;;;15.96;nan
77702;BME280;66868;42.708;23.404;2023-05-29T06:02:59;95033.28;;;15.83;nan
77702;BME280;66868;42.708;23.404;2023-05-29T06:05:25;95032.25;;;15.86;nan
77702;BME280;66868;42.708;23.404;2023-05-29T06:07:50;95029.72;;;15.75;nan
77702;BME280;66868;42.708;23.404;2023-05-29T06:10:16;95038.06;;;15.77;nan
77702;BME280;66868;42.708;23.404;2023-05-29T06:12:41;95025.66;;;15.72;nan
77702;BME280;66868;42.708;23.404;2023-05-29T06:15:07;95029.00;;;15.84;nan
77702;BME280;66868;42.708;23.404;2023-05-29T06:17:32;95022.06;;;15.75;nan
77702;BME280;66868;42.708;23.404;2023-05-29T06:19:58;95043.53;;;16.04;nan
77702;BME280;66868;42.708;23.404;2023-05-29T06:22:23;95042.69;;;16.24;nan
77702;BME280;66868;42.708;23.404;2023-05-29T06:24:49;95037.34;;;16.27;nan
77702;BME280;66868;42.708;23.404;2023-05-29T06:27:15;95042.03;;;16.53;nan
77702;BME280;66868;42.708;23.404;2023-05-29T06:29:40;95044.03;;;16.70;nan
77702;BME280;66868;42.708;23.404;2023-05-29T06:32:05;95026.78;;;16.62;nan
77702;BME280;66868;42.708;23.404;2023-05-29T06:34:31;95018.38;;;16.51;nan
77702;BME280;66868;42.708;23.404;2023-05-29T06:36:56;95040.56;;;16.81;nan
77702;BME280;66868;42.708;23.404;2023-05-29T06:39:22;95035.16;;;16.74;nan
77702;BME280;66868;42.708;23.404;2023-05-29T06:41:47;95021.16;;;16.68;nan
77702;BME280;66868;42.708;23.404;2023-05-29T06:44:12;95030.09;;;16.93;nan
77702;BME280;66868;42.708;23.404;2023-05-29T06:46:38;95016.25;;;16.86;nan
77702;BME280;66868;42.708;23.404;2023-05-29T06:49:03;94999.69;;;16.90;nan
77702;BME280;66868;42.708;23.404;2023-05-29T06:51:29;95037.44;;;17.17;nan
77702;BME280;66868;42.708;23.404;2023-05-29T06:53:54;95029.66;;;17.18;nan
77702;BME280;66868;42.708;23.404;2023-05-29T06:56:20;95031.28;;;17.29;nan
77702;BME280;66868;42.708;23.404;2023-05-29T06:58:46;95027.78;;;17.30;nan
77702;BME280;66868;42.708;23.404;2023-05-29T07:01:11;95036.41;;;17.39;nan
77702;BME280;66868;42.708;23.404;2023-05-29T07:03:37;95031.69;;;17.53;nan
77702;BME280;66868;42.708;23.404;2023-05-29T07:06:03;95039.13;;;17.47;nan
77702;BME280;66868;42.708;23.404;2023-05-29T07:08:28;95038.31;;;17.56;nan
77702;BME280;66868;42.708;23.404;2023-05-29T07:10:54;95038.91;;;17.69;nan
77702;BME280;66868;42.708;23.404;2023-05-29T07:13:19;95033.38;;;17.83;nan
77702;BME280;66868;42.708;23.404;2023-05-29T07:15:45;95034.44;;;17.90;nan
77702;BME280;66868;42.708;23.404;2023-05-29T07:18:10;95035.63;;;18.05;nan
77702;BME280;66868;42.708;23.404;2023-05-29T07:20:36;95037.38;;;18.15;nan
77702;BME280;66868;42.708;23.404;2023-05-29T07:23:02;95046.22;;;18.49;nan
77702;BME280;66868;42.708;23.404;2023-05-29T07:25:27;95048.31;;;18.73;nan
77702;BME280;66868;42.708;23.404;2023-05-29T07:27:53;95030.16;;;18.93;nan
77702;BME280;66868;42.708;23.404;2023-05-29T07:30:18;95040.06;;;19.06;nan
77702;BME280;66868;42.708;23.404;2023-05-29T07:32:44;95052.47;;;18.83;nan
77702;BME280;66868;42.708;23.404;2023-05-29T07:35:09;95038.22;;;18.98;nan
77702;BME280;66868;42.708;23.404;2023-05-29T07:37:34;95040.50;;;19.02;nan
77702;BME280;66868;42.708;23.404;2023-05-29T07:40:00;95038.13;;;18.90;nan
77702;BME280;66868;42.708;23.404;2023-05-29T07:42:26;95043.88;;;18.65;nan
77702;BME280;66868;42.708;23.404;2023-05-29T07:44:51;95036.06;;;18.67;nan
77702;BME280;66868;42.708;23.404;2023-05-29T07:47:17;95039.84;;;18.72;nan
77702;BME280;66868;42.708;23.404;2023-05-29T07:49:42;95038.59;;;18.76;nan
77702;BME280;66868;42.708;23.404;2023-05-29T07:52:08;95035.94;;;18.95;nan
77702;BME280;66868;42.708;23.404;2023-05-29T07:54:34;95039.94;;;19.08;nan
77702;BME280;66868;42.708;23.404;2023-05-29T07:56:59;95033.31;;;19.05;nan
77702;BME280;66868;42.708;23.404;2023-05-29T07:59:25;95015.34;;;19.05;nan
77702;BME280;66868;42.708;23.404;2023-05-29T08:01:51;95034.44;;;19.20;nan
77702;BME280;66868;42.708;23.404;2023-05-29T08:04:16;95038.41;;;19.42;nan
77702;BME280;66868;42.708;23.404;2023-05-29T08:06:42;95048.34;;;19.72;nan
77702;BME280;66868;42.708;23.404;2023-05-29T08:09:09;95050.84;;;19.82;nan
77702;BME280;66868;42.708;23.404;2023-05-29T08:11:36;95041.22;;;20.02;nan
77702;BME280;66868;42.708;23.404;2023-05-29T08:14:02;95037.75;;;19.93;nan
77702;BME280;66868;42.708;23.404;2023-05-29T08:16:27;95038.47;;;20.03;nan
77702;BME280;66868;42.708;23.404;2023-05-29T08:18:53;95033.47;;;20.19;nan
77702;BME280;66868;42.708;23.404;2023-05-29T08:21:18;95042.44;;;20.33;nan
77702;BME280;66868;42.708;23.404;2023-05-29T08:23:44;95041.25;;;20.53;nan
77702;BME280;66868;42.708;23.404;2023-05-29T08:26:09;95049.03;;;20.61;nan
77702;BME280;66868;42.708;23.404;2023-05-29T08:28:35;95044.81;;;20.52;nan
77702;BME280;66868;42.708;23.404;2023-05-29T08:31:00;95042.88;;;20.54;nan
77702;BME280;66868;42.708;23.404;2023-05-29T08:33:26;95038.19;;;20.76;nan
77702;BME280;66868;42.708;23.404;2023-05-29T08:35:51;95047.47;;;21.02;nan
77702;BME280;66868;42.708;23.404;2023-05-29T08:38:17;95035.47;;;21.19;nan
77702;BME280;66868;42.708;23.404;2023-05-29T08:40:42;95048.09;;;21.38;nan
77702;BME280;66868;42.708;23.404;2023-05-29T08:45:42;95027.75;;;21.19;nan
77702;BME280;66868;42.708;23.404;2023-05-29T08:48:09;95034.94;;;21.49;nan
77702;BME280;66868;42.708;23.404;2023-05-29T08:50:37;95032.69;;;21.71;nan
77702;BME280;66868;42.708;23.404;2023-05-29T08:53:04;95025.16;;;21.85;nan
77702;BME280;66868;42.708;23.404;2023-05-29T08:55:31;95004.66;;;21.92;nan
77702;BME280;66868;42.708;23.404;2023-05-29T08:57:57;95021.94;;;22.24;nan
77702;BME280;66868;42.708;23.404;2023-05-29T09:00:23;95033.34;;;22.45;nan
77702;BME280;66868;42.708;23.404;2023-05-29T09:02:53;95019.28;;;22.64;nan
77702;BME280;66868;42.708;23.404;2023-05-29T09:05:20;95021.03;;;22.88;nan
77702;BME280;66868;42.708;23.404;2023-05-29T09:07:46;95008.44;;;22.85;nan
77702;BME280;66868;42.708;23.404;2023-05-29T09:10:12;95011.34;;;22.82;nan
77702;BME280;66868;42.708;23.404;2023-05-29T09:12:38;95016.88;;;22.71;nan
77702;BME280;66868;42.708;23.404;2023-05-29T09:15:16;95018.94;;;22.83;nan
77702;BME280;66868;42.708;23.404;2023-05-29T09:17:42;95020.97;;;22.96;nan
77702;BME280;66868;42.708;23.404;2023-05-29T09:20:18;95015.28;;;23.09;nan
77702;BME280;66868;42.708;23.404;2023-05-29T09:22:53;95007.47;;;23.17;nan
77702;BME280;66868;42.708;23.404;2023-05-29T09:25:21;95007.97;;;23.20;nan
77702;BME280;66868;42.708;23.404;2023-05-29T09:27:51;95005.41;;;23.12;nan
77702;BME280;66868;42.708;23.404;2023-05-29T09:30:44;95006.72;;;23.08;nan
77702;BME280;66868;42.708;23.404;2023-05-29T09:33:11;95000.38;;;22.80;nan
77702;BME280;66868;42.708;23.404;2023-05-29T09:35:40;94998.78;;;22.79;nan
77702;BME280;66868;42.708;23.404;2023-05-29T09:38:08;94999.78;;;22.70;nan
77702;BME280;66868;42.708;23.404;2023-05-29T09:40:34;94996.38;;;22.77;nan
77702;BME280;66868;42.708;23.404;2023-05-29T09:43:04;94984.56;;;22.83;nan
77702;BME280;66868;42.708;23.404;2023-05-29T09:45:30;94979.09;;;22.78;nan
77702;BME280;66868;42.708;23.404;2023-05-29T09:47:56;94978.94;;;22.79;nan
77702;BME280;66868;42.708;23.404;2023-05-29T09:50:25;94966.50;;;22.83;nan
77702;BME280;66868;42.708;23.404;2023-05-29T09:52:51;94978.50;;;23.07;nan
77702;BME280;66868;42.708;23.404;2023-05-29T09:55:23;94973.03;;;23.02;nan
77702;BME280;66868;42.708;23.404;2023-05-29T09:57:48;94979.75;;;22.72;nan
77702;BME280;66868;42.708;23.404;2023-05-29T10:00:15;94962.03;;;22.53;nan
77702;BME280;66868;42.708;23.404;2023-05-29T10:02:42;94952.72;;;22.43;nan
77702;BME280;66868;42.708;23.404;2023-05-29T10:05:07;94968.31;;;22.58;nan
77702;BME280;66868;42.708;23.404;2023-05-29T10:07:36;94971.78;;;22.42;nan
77702;BME280;66868;42.708;23.404;2023-05-29T10:10:04;94941.78;;;22.41;nan
77702;BME280;66868;42.708;23.404;2023-05-29T10:12:44;94977.13;;;22.88;nan
77702;BME280;66868;42.708;23.404;2023-05-29T10:15:14;94980.88;;;23.16;nan
77702;BME280;66868;42.708;23.404;2023-05-29T10:18:03;94980.38;;;23.44;nan
77702;BME280;66868;42.708;23.404;2023-05-29T10:20:31;94971.63;;;23.53;nan
77702;BME280;66868;42.708;23.404;2023-05-29T10:23:00;94950.94;;;23.53;nan
77702;BME280;66868;42.708;23.404;2023-05-29T10:25:27;94961.28;;;23.75;nan
77702;BME280;66868;42.708;23.404;2023-05-29T10:27:56;94978.03;;;24.02;nan
77702;BME280;66868;42.708;23.404;2023-05-29T10:30:29;94965.66;;;24.12;nan
77702;BME280;66868;42.708;23.404;2023-05-29T10:33:05;94966.06;;;24.01;nan
77702;BME280;66868;42.708;23.404;2023-05-29T10:38:18;94962.38;;;24.18;nan
77702;BME280;66868;42.708;23.404;2023-05-29T10:40:44;94949.25;;;24.20;nan
77702;BME280;66868;42.708;23.404;2023-05-29T10:43:31;94963.38;;;24.09;nan
77702;BME280;66868;42.708;23.404;2023-05-29T10:46:00;94949.09;;;23.84;nan
77702;BME280;66868;42.708;23.404;2023-05-29T10:50:55;94942.44;;;24.04;nan
77702;BME280;66868;42.708;23.404;2023-05-29T10:53:25;94941.06;;;24.31;nan
77702;BME280;66868;42.708;23.404;2023-05-29T10:55:51;94941.94;;;24.38;nan
77702;BME280;66868;42.708;23.404;2023-05-29T10:58:21;94937.31;;;24.34;nan
77702;BME280;66868;42.708;23.404;2023-05-29T11:00:51;94941.88;;;24.32;nan
77702;BME280;66868;42.708;23.404;2023-05-29T11:03:24;94947.59;;;24.27;nan
77702;BME280;66868;42.708;23.404;2023-05-29T11:08:53;94941.78;;;24.25;nan
77702;BME280;66868;42.708;23.404;2023-05-29T11:13:54;94934.28;;;24.59;nan
77702;BME280;66868;42.708;23.404;2023-05-29T11:18:55;94940.84;;;25.42;nan
77702;BME280;66868;42.708;23.404;2023-05-29T11:21:31;94923.44;;;25.78;nan
77702;BME280;66868;42.708;23.404;2023-05-29T11:23:59;94923.06;;;26.09;nan
77702;BME280;66868;42.708;23.404;2023-05-29T11:26:29;94935.81;;;26.32;nan
77702;BME280;66868;42.708;23.404;2023-05-29T11:29:02;94935.31;;;26.50;nan
77702;BME280;66868;42.708;23.404;2023-05-29T11:31:31;94931.78;;;26.64;nan
77702;BME280;66868;42.708;23.404;2023-05-29T11:34:01;94942.38;;;26.62;nan
77702;BME280;66868;42.708;23.404;2023-05-29T11:36:30;94939.81;;;26.69;nan
77702;BME280;66868;42.708;23.404;2023-05-29T11:38:56;94944.19;;;26.68;nan
77702;BME280;66868;42.708;23.404;2023-05-29T11:41:22;94945.34;;;26.59;nan
77702;BME280;66868;42.708;23.404;2023-05-29T11:44:02;94949.38;;;26.62;nan
77702;BME280;66868;42.708;23.404;2023-05-29T11:46:28;94942.56;;;26.54;nan
77702;BME280;66868;42.708;23.404;2023-05-29T11:49:00;94938.91;;;26.49;nan
77702;BME280;66868;42.708;23.404;2023-05-29T11:51:26;94936.19;;;26.29;nan
77702;BME280;66868;42.708;23.404;2023-05-29T11:53:52;94947.75;;;25.99;nan
77702;BME280;66868;42.708;23.404;2023-05-29T11:56:26;94952.59;;;25.59;nan
77702;BME280;66868;42.708;23.404;2023-05-29T11:58:52;94941.34;;;25.16;nan
77702;BME280;66868;42.708;23.404;2023-05-29T12:01:22;94944.72;;;24.66;nan
77702;BME280;66868;42.708;23.404;2023-05-29T12:03:48;94960.88;;;24.39;nan
77702;BME280;66868;42.708;23.404;2023-05-29T12:06:14;94944.13;;;23.97;nan
77702;BME280;66868;42.708;23.404;2023-05-29T12:08:39;94957.41;;;23.94;nan
77702;BME280;66868;42.708;23.404;2023-05-29T12:11:05;94962.09;;;23.76;nan
77702;BME280;66868;42.708;23.404;2023-05-29T12:13:31;94946.47;;;23.47;nan
77702;BME280;66868;42.708;23.404;2023-05-29T12:16:01;94957.84;;;23.29;nan
77702;BME280;66868;42.708;23.404;2023-05-29T12:18:28;94963.19;;;23.28;nan
77702;BME280;66868;42.708;23.404;2023-05-29T12:21:00;94963.09;;;23.13;nan
77702;BME280;66868;42.708;23.404;2023-05-29T12:23:25;94950.50;;;22.87;nan
77702;BME280;66868;42.708;23.404;2023-05-29T12:25:51;94962.59;;;22.87;nan
77702;BME280;66868;42.708;23.404;2023-05-29T12:28:18;94948.28;;;22.76;nan
77702;BME280;66868;42.708;23.404;2023-05-29T12:30:44;94961.63;;;22.88;nan
77702;BME280;66868;42.708;23.404;2023-05-29T12:33:31;94960.94;;;22.94;nan
77702;BME280;66868;42.708;23.404;2023-05-29T12:36:05;94954.50;;;22.90;nan
77702;BME280;66868;42.708;23.404;2023-05-29T12:38:31;94957.88;;;23.21;nan
77702;BME280;66868;42.708;23.404;2023-05-29T12:40:57;94933.84;;;23.52;nan
77702;BME280;66868;42.708;23.404;2023-05-29T12:43:22;94956.28;;;24.11;nan
77702;BME280;66868;42.708;23.404;2023-05-29T12:45:54;94940.16;;;24.83;nan
77702;BME280;66868;42.708;23.404;2023-05-29T12:48:20;94924.41;;;25.77;nan
77702;BME280;66868;42.708;23.404;2023-05-29T12:50:49;94952.59;;;26.70;nan
77702;BME280;66868;42.708;23.404;2023-05-29T12:53:15;94936.94;;;27.52;nan
77702;BME280;66868;42.708;23.404;2023-05-29T12:55:42;94954.56;;;28.49;nan
77702;BME280;66868;42.708;23.404;2023-05-29T12:58:12;94942.91;;;29.60;nan
77702;BME280;66868;42.708;23.404;2023-05-29T13:00:39;94951.72;;;30.65;nan
77702;BME280;66868;42.708;23.404;2023-05-29T13:03:06;94973.78;;;31.72;nan
77702;BME280;66868;42.708;23.404;2023-05-29T13:05:31;94958.81;;;32.83;nan
77702;BME280;66868;42.708;23.404;2023-05-29T13:07:57;94973.03;;;33.96;nan
77702;BME280;66868;42.708;23.404;2023-05-29T13:10:25;94977.94;;;35.14;nan
77702;BME280;66868;42.708;23.404;2023-05-29T13:12:50;94967.75;;;36.25;nan
77702;BME280;66868;42.708;23.404;2023-05-29T13:15:21;94985.41;;;37.91;nan
77702;BME280;66868;42.708;23.404;2023-05-29T13:17:47;94986.00;;;39.43;nan
77702;BME280;66868;42.708;23.404;2023-05-29T13:20:13;94999.09;;;40.17;nan
77702;BME280;66868;42.708;23.404;2023-05-29T13:22:40;94993.69;;;41.57;nan
77702;BME280;66868;42.708;23.404;2023-05-29T13:25:07;95009.97;;;43.03;nan
77702;BME280;66868;42.708;23.404;2023-05-29T13:27:35;95004.53;;;44.35;nan
77702;BME280;66868;42.708;23.404;2023-05-29T13:30:01;95010.88;;;45.40;nan
77702;BME280;66868;42.708;23.404;2023-05-29T13:32:27;95016.63;;;45.34;nan